sensor_id;sensor_type;location;lat;lon;timestamp;P1;durP1;ratioP1;P2;durP2;ratioP2
58302;SDS011;44109;52.398;7.024;2022-12-26T00:01:04;13.05;;;7.82;;
58302;SDS011;44109;52.398;7.024;2022-12-26T00:03:35;14.13;;;8.93;;
58302;SDS011;44109;52.398;7.024;2022-12-26T00:06:03;15.05;;;9.35;;
58302;SDS011;44109;52.398;7.024;2022-12-26T00:08:38;14.30;;;8.13;;
58302;SDS011;44109;52.398;7.024;2022-12-26T00:11:06;14.43;;;8.63;;
58302;SDS011;44109;52.398;7.024;2022-12-26T00:13:34;16.17;;;8.77;;
58302;SDS011;44109;52.398;7.024;2022-12-26T00:16:04;15.90;;;9.43;;
58302;SDS011;44109;52.398;7.024;2022-12-26T00:18:33;12.45;;;7.18;;
58302;SDS011;44109;52.398;7.024;2022-12-26T00:21:00;11.45;;;6.97;;
58302;SDS011;44109;52.398;7.024;2022-12-26T00:23:30;11.13;;;6.55;;
58302;SDS011;44109;52.398;7.024;2022-12-26T00:26:02;14.57;;;8.75;;
58302;SDS011;44109;52.398;7.024;2022-12-26T00:28:30;11.30;;;7.10;;
58302;SDS011;44109;52.398;7.024;2022-12-26T00:31:01;16.38;;;9.23;;
58302;SDS011;44109;52.398;7.024;2022-12-26T00:33:30;10.15;;;6.40;;
58302;SDS011;44109;52.398;7.024;2022-12-26T00:36:00;18.02;;;9.10;;
58302;SDS011;44109;52.398;7.024;2022-12-26T00:38:28;16.67;;;9.25;;
58302;SDS011;44109;52.398;7.024;2022-12-26T00:40:56;16.67;;;9.43;;
58302;SDS011;44109;52.398;7.024;2022-12-26T00:43:25;19.60;;;10.32;;
58302;SDS011;44109;52.398;7.024;2022-12-26T00:45:53;13.00;;;6.53;;
58302;SDS011;44109;52.398;7.024;2022-12-26T00:48:21;11.88;;;6.63;;
58302;SDS011;44109;52.398;7.024;2022-12-26T00:50:48;18.73;;;9.98;;
58302;SDS011;44109;52.398;7.024;2022-12-26T00:53:17;13.70;;;8.43;;
58302;SDS011;44109;52.398;7.024;2022-12-26T00:55:45;13.77;;;8.88;;
58302;SDS011;44109;52.398;7.024;2022-12-26T00:58:13;13.15;;;7.45;;
58302;SDS011;44109;52.398;7.024;2022-12-26T01:00:42;15.40;;;8.73;;
58302;SDS011;44109;52.398;7.024;2022-12-26T01:03:10;9.05;;;5.85;;
58302;SDS011;44109;52.398;7.024;2022-12-26T01:05:39;15.50;;;9.32;;
58302;SDS011;44109;52.398;7.024;2022-12-26T01:08:08;17.20;;;9.02;;
58302;SDS011;44109;52.398;7.024;2022-12-26T01:10:37;15.00;;;7.63;;
58302;SDS011;44109;52.398;7.024;2022-12-26T01:13:07;14.25;;;8.15;;
58302;SDS011;44109;52.398;7.024;2022-12-26T01:15:35;17.13;;;10.48;;
58302;SDS011;44109;52.398;7.024;2022-12-26T01:18:05;16.05;;;9.75;;
58302;SDS011;44109;52.398;7.024;2022-12-26T01:20:33;15.77;;;8.98;;
58302;SDS011;44109;52.398;7.024;2022-12-26T01:23:00;19.17;;;10.75;;
58302;SDS011;44109;52.398;7.024;2022-12-26T01:25:28;19.02;;;9.75;;
58302;SDS011;44109;52.398;7.024;2022-12-26T01:27:56;14.98;;;9.55;;
58302;SDS011;44109;52.398;7.024;2022-12-26T01:30:23;19.48;;;10.77;;
58302;SDS011;44109;52.398;7.024;2022-12-26T01:32:51;33.63;;;15.93;;
58302;SDS011;44109;52.398;7.024;2022-12-26T01:35:20;13.65;;;9.27;;
58302;SDS011;44109;52.398;7.024;2022-12-26T01:37:48;21.83;;;11.88;;
58302;SDS011;44109;52.398;7.024;2022-12-26T01:40:15;20.58;;;11.88;;
58302;SDS011;44109;52.398;7.024;2022-12-26T01:42:43;33.72;;;15.85;;
58302;SDS011;44109;52.398;7.024;2022-12-26T01:45:21;23.50;;;12.82;;
58302;SDS011;44109;52.398;7.024;2022-12-26T01:47:57;18.60;;;11.35;;
58302;SDS011;44109;52.398;7.024;2022-12-26T01:50:34;18.60;;;10.60;;
58302;SDS011;44109;52.398;7.024;2022-12-26T01:53:11;18.83;;;11.07;;
58302;SDS011;44109;52.398;7.024;2022-12-26T01:55:47;22.20;;;11.30;;
58302;SDS011;44109;52.398;7.024;2022-12-26T01:58:23;21.95;;;12.50;;
58302;SDS011;44109;52.398;7.024;2022-12-26T02:00:56;30.17;;;15.95;;
58302;SDS011;44109;52.398;7.024;2022-12-26T02:03:27;16.65;;;10.32;;
58302;SDS011;44109;52.398;7.024;2022-12-26T02:06:13;19.90;;;12.18;;
58302;SDS011;44109;52.398;7.024;2022-12-26T02:08:44;25.10;;;13.13;;
58302;SDS011;44109;52.398;7.024;2022-12-26T02:11:13;26.90;;;13.10;;
58302;SDS011;44109;52.398;7.024;2022-12-26T02:13:46;22.48;;;12.50;;
58302;SDS011;44109;52.398;7.024;2022-12-26T02:16:14;25.20;;;14.10;;
58302;SDS011;44109;52.398;7.024;2022-12-26T02:18:44;16.20;;;9.75;;
58302;SDS011;44109;52.398;7.024;2022-12-26T02:21:28;16.70;;;9.77;;
58302;SDS011;44109;52.398;7.024;2022-12-26T02:31:00;16.42;;;9.43;;
58302;SDS011;44109;52.398;7.024;2022-12-26T02:33:46;19.45;;;11.88;;
58302;SDS011;44109;52.398;7.024;2022-12-26T02:36:34;16.25;;;10.15;;
58302;SDS011;44109;52.398;7.024;2022-12-26T02:39:22;23.85;;;12.13;;
58302;SDS011;44109;52.398;7.024;2022-12-26T02:42:12;20.80;;;12.07;;
58302;SDS011;44109;52.398;7.024;2022-12-26T02:44:52;16.75;;;10.45;;
58302;SDS011;44109;52.398;7.024;2022-12-26T02:47:52;25.42;;;12.73;;
58302;SDS011;44109;52.398;7.024;2022-12-26T02:50:32;33.60;;;16.35;;
58302;SDS011;44109;52.398;7.024;2022-12-26T02:53:38;28.98;;;15.90;;
58302;SDS011;44109;52.398;7.024;2022-12-26T02:56:35;29.48;;;15.98;;
58302;SDS011;44109;52.398;7.024;2022-12-26T02:59:28;17.95;;;10.68;;
58302;SDS011;44109;52.398;7.024;2022-12-26T03:02:27;26.52;;;13.80;;
58302;SDS011;44109;52.398;7.024;2022-12-26T03:08:23;22.13;;;12.00;;
58302;SDS011;44109;52.398;7.024;2022-12-26T03:11:15;30.63;;;14.32;;
58302;SDS011;44109;52.398;7.024;2022-12-26T03:14:02;34.45;;;18.30;;
58302;SDS011;44109;52.398;7.024;2022-12-26T03:16:40;34.78;;;18.02;;
58302;SDS011;44109;52.398;7.024;2022-12-26T03:19:29;34.13;;;18.13;;
58302;SDS011;44109;52.398;7.024;2022-12-26T03:22:02;28.35;;;16.08;;
58302;SDS011;44109;52.398;7.024;2022-12-26T03:24:52;23.30;;;12.98;;
58302;SDS011;44109;52.398;7.024;2022-12-26T03:27:38;20.92;;;10.23;;
58302;SDS011;44109;52.398;7.024;2022-12-26T03:30:06;29.95;;;15.38;;
58302;SDS011;44109;52.398;7.024;2022-12-26T03:32:54;20.17;;;11.95;;
58302;SDS011;44109;52.398;7.024;2022-12-26T03:35:26;24.52;;;12.93;;
58302;SDS011;44109;52.398;7.024;2022-12-26T03:38:00;21.23;;;11.43;;
58302;SDS011;44109;52.398;7.024;2022-12-26T03:40:39;31.13;;;15.65;;
58302;SDS011;44109;52.398;7.024;2022-12-26T03:43:48;36.75;;;17.08;;
58302;SDS011;44109;52.398;7.024;2022-12-26T03:47:01;30.65;;;14.40;;
58302;SDS011;44109;52.398;7.024;2022-12-26T03:50:00;39.95;;;19.02;;
58302;SDS011;44109;52.398;7.024;2022-12-26T03:52:59;23.45;;;12.55;;
58302;SDS011;44109;52.398;7.024;2022-12-26T03:55:57;22.02;;;11.40;;
58302;SDS011;44109;52.398;7.024;2022-12-26T03:58:52;47.00;;;19.50;;
58302;SDS011;44109;52.398;7.024;2022-12-26T04:01:47;31.98;;;16.00;;
58302;SDS011;44109;52.398;7.024;2022-12-26T04:04:38;29.95;;;13.45;;
58302;SDS011;44109;52.398;7.024;2022-12-26T04:07:28;23.63;;;12.18;;
58302;SDS011;44109;52.398;7.024;2022-12-26T04:10:20;29.17;;;13.85;;
58302;SDS011;44109;52.398;7.024;2022-12-26T04:13:15;22.20;;;13.18;;
58302;SDS011;44109;52.398;7.024;2022-12-26T04:16:07;30.75;;;14.77;;
58302;SDS011;44109;52.398;7.024;2022-12-26T04:19:05;24.63;;;12.88;;
58302;SDS011;44109;52.398;7.024;2022-12-26T04:21:53;32.55;;;14.43;;
58302;SDS011;44109;52.398;7.024;2022-12-26T04:24:49;22.33;;;12.77;;
58302;SDS011;44109;52.398;7.024;2022-12-26T04:27:43;45.92;;;20.73;;
58302;SDS011;44109;52.398;7.024;2022-12-26T04:30:29;48.58;;;20.65;;
58302;SDS011;44109;52.398;7.024;2022-12-26T04:33:19;40.55;;;18.77;;
58302;SDS011;44109;52.398;7.024;2022-12-26T04:36:13;59.72;;;23.35;;
58302;SDS011;44109;52.398;7.024;2022-12-26T04:39:06;56.22;;;24.73;;
58302;SDS011;44109;52.398;7.024;2022-12-26T04:41:56;32.40;;;15.05;;
58302;SDS011;44109;52.398;7.024;2022-12-26T04:44:45;20.95;;;12.82;;
58302;SDS011;44109;52.398;7.024;2022-12-26T04:47:15;21.70;;;12.85;;
58302;SDS011;44109;52.398;7.024;2022-12-26T04:49:44;23.15;;;14.13;;
58302;SDS011;44109;52.398;7.024;2022-12-26T04:52:43;24.98;;;14.45;;
58302;SDS011;44109;52.398;7.024;2022-12-26T04:55:26;45.25;;;20.90;;
58302;SDS011;44109;52.398;7.024;2022-12-26T04:57:56;33.92;;;18.00;;
58302;SDS011;44109;52.398;7.024;2022-12-26T05:00:27;26.00;;;15.15;;
58302;SDS011;44109;52.398;7.024;2022-12-26T05:02:55;22.63;;;13.10;;
58302;SDS011;44109;52.398;7.024;2022-12-26T05:05:41;25.75;;;15.10;;
58302;SDS011;44109;52.398;7.024;2022-12-26T05:08:36;36.22;;;18.33;;
58302;SDS011;44109;52.398;7.024;2022-12-26T05:11:24;29.23;;;15.40;;
58302;SDS011;44109;52.398;7.024;2022-12-26T05:13:53;26.70;;;14.68;;
58302;SDS011;44109;52.398;7.024;2022-12-26T05:16:25;42.00;;;22.85;;
58302;SDS011;44109;52.398;7.024;2022-12-26T05:19:11;29.00;;;15.05;;
58302;SDS011;44109;52.398;7.024;2022-12-26T05:21:59;29.05;;;16.85;;
58302;SDS011;44109;52.398;7.024;2022-12-26T05:24:47;29.77;;;18.80;;
58302;SDS011;44109;52.398;7.024;2022-12-26T05:27:41;28.13;;;15.87;;
58302;SDS011;44109;52.398;7.024;2022-12-26T05:30:28;31.02;;;16.63;;
58302;SDS011;44109;52.398;7.024;2022-12-26T05:32:57;31.33;;;16.83;;
58302;SDS011;44109;52.398;7.024;2022-12-26T05:35:42;27.70;;;15.65;;
58302;SDS011;44109;52.398;7.024;2022-12-26T05:38:10;31.52;;;17.23;;
58302;SDS011;44109;52.398;7.024;2022-12-26T05:40:37;34.95;;;19.77;;
58302;SDS011;44109;52.398;7.024;2022-12-26T05:43:05;33.20;;;17.40;;
58302;SDS011;44109;52.398;7.024;2022-12-26T05:45:32;32.78;;;18.08;;
58302;SDS011;44109;52.398;7.024;2022-12-26T05:48:01;31.73;;;18.40;;
58302;SDS011;44109;52.398;7.024;2022-12-26T05:50:29;32.67;;;17.70;;
58302;SDS011;44109;52.398;7.024;2022-12-26T05:52:57;30.60;;;17.17;;
58302;SDS011;44109;52.398;7.024;2022-12-26T05:55:25;44.40;;;23.65;;
58302;SDS011;44109;52.398;7.024;2022-12-26T05:57:53;50.80;;;28.13;;
58302;SDS011;44109;52.398;7.024;2022-12-26T06:00:21;42.13;;;22.20;;
58302;SDS011;44109;52.398;7.024;2022-12-26T06:02:49;46.95;;;23.98;;
58302;SDS011;44109;52.398;7.024;2022-12-26T06:05:18;27.55;;;15.80;;
58302;SDS011;44109;52.398;7.024;2022-12-26T06:07:45;43.63;;;22.80;;
58302;SDS011;44109;52.398;7.024;2022-12-26T06:10:13;50.15;;;25.75;;
58302;SDS011;44109;52.398;7.024;2022-12-26T06:12:41;35.70;;;18.40;;
58302;SDS011;44109;52.398;7.024;2022-12-26T06:15:09;35.25;;;20.10;;
58302;SDS011;44109;52.398;7.024;2022-12-26T06:17:38;35.40;;;20.23;;
58302;SDS011;44109;52.398;7.024;2022-12-26T06:20:06;42.65;;;22.15;;
58302;SDS011;44109;52.398;7.024;2022-12-26T06:22:36;41.38;;;20.23;;
58302;SDS011;44109;52.398;7.024;2022-12-26T06:25:04;41.65;;;22.25;;
58302;SDS011;44109;52.398;7.024;2022-12-26T06:27:34;36.65;;;20.83;;
58302;SDS011;44109;52.398;7.024;2022-12-26T06:30:01;38.72;;;21.95;;
58302;SDS011;44109;52.398;7.024;2022-12-26T06:32:29;35.30;;;19.85;;
58302;SDS011;44109;52.398;7.024;2022-12-26T06:34:57;32.55;;;17.30;;
58302;SDS011;44109;52.398;7.024;2022-12-26T06:37:25;34.20;;;17.67;;
58302;SDS011;44109;52.398;7.024;2022-12-26T06:39:53;43.72;;;23.60;;
58302;SDS011;44109;52.398;7.024;2022-12-26T06:42:21;32.83;;;16.98;;
58302;SDS011;44109;52.398;7.024;2022-12-26T06:44:49;32.55;;;18.10;;
58302;SDS011;44109;52.398;7.024;2022-12-26T06:47:16;45.60;;;22.95;;
58302;SDS011;44109;52.398;7.024;2022-12-26T06:49:44;34.67;;;19.98;;
58302;SDS011;44109;52.398;7.024;2022-12-26T06:52:12;32.72;;;17.45;;
58302;SDS011;44109;52.398;7.024;2022-12-26T06:54:39;33.33;;;18.05;;
58302;SDS011;44109;52.398;7.024;2022-12-26T06:57:08;30.83;;;17.70;;
58302;SDS011;44109;52.398;7.024;2022-12-26T06:59:36;36.97;;;18.70;;
58302;SDS011;44109;52.398;7.024;2022-12-26T07:02:04;50.97;;;23.63;;
58302;SDS011;44109;52.398;7.024;2022-12-26T07:04:32;46.60;;;23.48;;
58302;SDS011;44109;52.398;7.024;2022-12-26T07:06:59;39.67;;;21.25;;
58302;SDS011;44109;52.398;7.024;2022-12-26T07:09:27;46.67;;;23.55;;
58302;SDS011;44109;52.398;7.024;2022-12-26T07:11:55;50.10;;;26.00;;
58302;SDS011;44109;52.398;7.024;2022-12-26T07:14:24;49.03;;;24.88;;
58302;SDS011;44109;52.398;7.024;2022-12-26T07:16:51;48.20;;;25.58;;
58302;SDS011;44109;52.398;7.024;2022-12-26T07:19:19;34.05;;;18.85;;
58302;SDS011;44109;52.398;7.024;2022-12-26T07:21:48;29.25;;;16.45;;
58302;SDS011;44109;52.398;7.024;2022-12-26T07:24:17;36.42;;;19.77;;
58302;SDS011;44109;52.398;7.024;2022-12-26T07:26:48;24.17;;;13.93;;
58302;SDS011;44109;52.398;7.024;2022-12-26T07:29:16;39.65;;;19.77;;
58302;SDS011;44109;52.398;7.024;2022-12-26T07:31:45;25.48;;;15.93;;
58302;SDS011;44109;52.398;7.024;2022-12-26T07:34:13;24.38;;;14.18;;
58302;SDS011;44109;52.398;7.024;2022-12-26T07:36:41;38.20;;;19.60;;
58302;SDS011;44109;52.398;7.024;2022-12-26T07:39:10;26.92;;;15.73;;
58302;SDS011;44109;52.398;7.024;2022-12-26T07:41:39;35.58;;;18.85;;
58302;SDS011;44109;52.398;7.024;2022-12-26T07:44:24;28.20;;;15.88;;
58302;SDS011;44109;52.398;7.024;2022-12-26T07:46:55;20.55;;;12.50;;
58302;SDS011;44109;52.398;7.024;2022-12-26T07:49:23;18.20;;;10.38;;
58302;SDS011;44109;52.398;7.024;2022-12-26T07:51:51;29.65;;;15.70;;
58302;SDS011;44109;52.398;7.024;2022-12-26T07:54:19;25.20;;;14.25;;
58302;SDS011;44109;52.398;7.024;2022-12-26T07:56:47;22.15;;;12.98;;
58302;SDS011;44109;52.398;7.024;2022-12-26T07:59:17;19.25;;;12.90;;
58302;SDS011;44109;52.398;7.024;2022-12-26T08:01:45;20.17;;;11.13;;
58302;SDS011;44109;52.398;7.024;2022-12-26T08:04:14;20.38;;;12.55;;
58302;SDS011;44109;52.398;7.024;2022-12-26T08:06:41;20.83;;;13.23;;
58302;SDS011;44109;52.398;7.024;2022-12-26T08:09:11;12.40;;;7.97;;
58302;SDS011;44109;52.398;7.024;2022-12-26T08:11:41;20.20;;;11.65;;
58302;SDS011;44109;52.398;7.024;2022-12-26T08:14:10;12.85;;;7.85;;
58302;SDS011;44109;52.398;7.024;2022-12-26T08:16:39;21.45;;;14.30;;
58302;SDS011;44109;52.398;7.024;2022-12-26T08:19:06;14.80;;;9.52;;
58302;SDS011;44109;52.398;7.024;2022-12-26T08:21:36;17.25;;;10.20;;
58302;SDS011;44109;52.398;7.024;2022-12-26T08:24:04;14.68;;;8.95;;
58302;SDS011;44109;52.398;7.024;2022-12-26T08:26:32;17.15;;;10.80;;
58302;SDS011;44109;52.398;7.024;2022-12-26T08:29:00;15.15;;;9.57;;
58302;SDS011;44109;52.398;7.024;2022-12-26T08:31:27;16.33;;;8.93;;
58302;SDS011;44109;52.398;7.024;2022-12-26T08:33:55;17.52;;;11.80;;
58302;SDS011;44109;52.398;7.024;2022-12-26T08:36:23;20.88;;;11.80;;
58302;SDS011;44109;52.398;7.024;2022-12-26T08:38:52;23.85;;;12.05;;
58302;SDS011;44109;52.398;7.024;2022-12-26T08:41:20;19.00;;;11.48;;
58302;SDS011;44109;52.398;7.024;2022-12-26T08:43:48;15.88;;;10.50;;
58302;SDS011;44109;52.398;7.024;2022-12-26T08:46:17;22.98;;;13.00;;
58302;SDS011;44109;52.398;7.024;2022-12-26T08:48:46;20.88;;;11.75;;
58302;SDS011;44109;52.398;7.024;2022-12-26T08:51:15;19.90;;;11.40;;
58302;SDS011;44109;52.398;7.024;2022-12-26T08:53:45;11.70;;;7.63;;
58302;SDS011;44109;52.398;7.024;2022-12-26T08:56:16;17.73;;;10.35;;
58302;SDS011;44109;52.398;7.024;2022-12-26T08:58:46;17.80;;;11.10;;
58302;SDS011;44109;52.398;7.024;2022-12-26T09:01:15;16.75;;;10.60;;
58302;SDS011;44109;52.398;7.024;2022-12-26T09:03:45;13.43;;;7.88;;
58302;SDS011;44109;52.398;7.024;2022-12-26T09:06:13;18.73;;;12.25;;
58302;SDS011;44109;52.398;7.024;2022-12-26T09:08:42;14.27;;;9.30;;
58302;SDS011;44109;52.398;7.024;2022-12-26T09:11:10;18.88;;;10.80;;
58302;SDS011;44109;52.398;7.024;2022-12-26T09:13:44;15.70;;;9.65;;
58302;SDS011;44109;52.398;7.024;2022-12-26T09:16:13;16.33;;;10.25;;
58302;SDS011;44109;52.398;7.024;2022-12-26T09:18:45;14.68;;;8.43;;
58302;SDS011;44109;52.398;7.024;2022-12-26T09:21:14;14.50;;;9.35;;
58302;SDS011;44109;52.398;7.024;2022-12-26T09:23:42;16.23;;;9.75;;
58302;SDS011;44109;52.398;7.024;2022-12-26T09:26:10;12.45;;;7.78;;
58302;SDS011;44109;52.398;7.024;2022-12-26T09:28:41;13.90;;;6.82;;
58302;SDS011;44109;52.398;7.024;2022-12-26T09:31:12;14.88;;;8.65;;
58302;SDS011;44109;52.398;7.024;2022-12-26T09:33:42;12.35;;;7.80;;
58302;SDS011;44109;52.398;7.024;2022-12-26T09:36:10;12.35;;;8.77;;
58302;SDS011;44109;52.398;7.024;2022-12-26T09:38:40;12.32;;;6.72;;
58302;SDS011;44109;52.398;7.024;2022-12-26T09:41:13;12.23;;;6.78;;
58302;SDS011;44109;52.398;7.024;2022-12-26T09:44:07;11.73;;;7.23;;
58302;SDS011;44109;52.398;7.024;2022-12-26T09:46:46;15.60;;;6.82;;
58302;SDS011;44109;52.398;7.024;2022-12-26T09:49:27;13.85;;;7.10;;
58302;SDS011;44109;52.398;7.024;2022-12-26T09:51:59;11.77;;;6.03;;
58302;SDS011;44109;52.398;7.024;2022-12-26T09:54:36;10.27;;;6.63;;
58302;SDS011;44109;52.398;7.024;2022-12-26T09:57:11;12.65;;;6.53;;
58302;SDS011;44109;52.398;7.024;2022-12-26T10:02:18;8.52;;;5.30;;
58302;SDS011;44109;52.398;7.024;2022-12-26T10:04:48;11.98;;;5.75;;
58302;SDS011;44109;52.398;7.024;2022-12-26T10:07:20;6.07;;;4.78;;
58302;SDS011;44109;52.398;7.024;2022-12-26T10:09:58;7.20;;;4.97;;
58302;SDS011;44109;52.398;7.024;2022-12-26T10:12:43;8.18;;;4.80;;
58302;SDS011;44109;52.398;7.024;2022-12-26T10:15:30;7.90;;;4.55;;
58302;SDS011;44109;52.398;7.024;2022-12-26T10:18:17;9.00;;;4.93;;
58302;SDS011;44109;52.398;7.024;2022-12-26T10:21:04;9.02;;;5.32;;
58302;SDS011;44109;52.398;7.024;2022-12-26T10:23:53;9.45;;;5.88;;
58302;SDS011;44109;52.398;7.024;2022-12-26T10:29:00;9.73;;;5.30;;
58302;SDS011;44109;52.398;7.024;2022-12-26T10:31:39;10.32;;;4.57;;
58302;SDS011;44109;52.398;7.024;2022-12-26T10:34:15;8.98;;;5.50;;
58302;SDS011;44109;52.398;7.024;2022-12-26T10:36:50;10.80;;;6.32;;
58302;SDS011;44109;52.398;7.024;2022-12-26T10:39:27;5.53;;;3.95;;
58302;SDS011;44109;52.398;7.024;2022-12-26T10:42:04;10.85;;;5.53;;
58302;SDS011;44109;52.398;7.024;2022-12-26T10:44:44;6.88;;;5.28;;
58302;SDS011;44109;52.398;7.024;2022-12-26T10:47:16;8.95;;;4.68;;
58302;SDS011;44109;52.398;7.024;2022-12-26T10:49:53;13.73;;;5.50;;
58302;SDS011;44109;52.398;7.024;2022-12-26T10:52:26;5.13;;;3.80;;
58302;SDS011;44109;52.398;7.024;2022-12-26T10:54:59;10.45;;;6.00;;
58302;SDS011;44109;52.398;7.024;2022-12-26T10:57:28;9.65;;;4.78;;
58302;SDS011;44109;52.398;7.024;2022-12-26T11:00:02;10.27;;;5.85;;
58302;SDS011;44109;52.398;7.024;2022-12-26T11:02:42;6.93;;;4.53;;
58302;SDS011;44109;52.398;7.024;2022-12-26T11:05:13;7.93;;;4.65;;
58302;SDS011;44109;52.398;7.024;2022-12-26T11:07:49;9.30;;;4.55;;
58302;SDS011;44109;52.398;7.024;2022-12-26T11:10:23;8.63;;;4.50;;
58302;SDS011;44109;52.398;7.024;2022-12-26T11:12:56;8.20;;;4.28;;
58302;SDS011;44109;52.398;7.024;2022-12-26T11:15:30;7.03;;;3.03;;
58302;SDS011;44109;52.398;7.024;2022-12-26T11:18:07;7.35;;;2.40;;
58302;SDS011;44109;52.398;7.024;2022-12-26T11:21:10;8.55;;;2.65;;
58302;SDS011;44109;52.398;7.024;2022-12-26T11:23:45;10.43;;;2.75;;
58302;SDS011;44109;52.398;7.024;2022-12-26T11:26:18;8.02;;;2.15;;
58302;SDS011;44109;52.398;7.024;2022-12-26T11:29:03;8.05;;;2.08;;
58302;SDS011;44109;52.398;7.024;2022-12-26T11:34:01;7.15;;;1.95;;
58302;SDS011;44109;52.398;7.024;2022-12-26T11:36:36;14.52;;;2.30;;
58302;SDS011;44109;52.398;7.024;2022-12-26T11:39:18;6.30;;;1.88;;
58302;SDS011;44109;52.398;7.024;2022-12-26T11:41:50;7.97;;;2.03;;
58302;SDS011;44109;52.398;7.024;2022-12-26T11:44:22;7.90;;;1.88;;
58302;SDS011;44109;52.398;7.024;2022-12-26T11:46:56;11.55;;;2.10;;
58302;SDS011;44109;52.398;7.024;2022-12-26T11:49:28;8.25;;;2.00;;
58302;SDS011;44109;52.398;7.024;2022-12-26T11:57:54;6.97;;;2.30;;
58302;SDS011;44109;52.398;7.024;2022-12-26T12:00:24;8.35;;;1.73;;
58302;SDS011;44109;52.398;7.024;2022-12-26T12:02:52;7.47;;;2.38;;
58302;SDS011;44109;52.398;7.024;2022-12-26T12:05:26;13.82;;;1.63;;
58302;SDS011;44109;52.398;7.024;2022-12-26T12:08:14;12.70;;;2.17;;
58302;SDS011;44109;52.398;7.024;2022-12-26T12:11:15;12.00;;;1.90;;
58302;SDS011;44109;52.398;7.024;2022-12-26T12:14:01;5.13;;;1.50;;
58302;SDS011;44109;52.398;7.024;2022-12-26T12:16:43;9.43;;;2.10;;
58302;SDS011;44109;52.398;7.024;2022-12-26T12:19:26;5.85;;;1.67;;
58302;SDS011;44109;52.398;7.024;2022-12-26T12:22:18;14.70;;;2.40;;
58302;SDS011;44109;52.398;7.024;2022-12-26T12:28:18;8.63;;;1.95;;
58302;SDS011;44109;52.398;7.024;2022-12-26T12:31:30;5.97;;;1.83;;
58302;SDS011;44109;52.398;7.024;2022-12-26T12:34:17;9.70;;;1.85;;
58302;SDS011;44109;52.398;7.024;2022-12-26T12:37:00;5.83;;;1.30;;
58302;SDS011;44109;52.398;7.024;2022-12-26T12:39:46;8.02;;;1.92;;
58302;SDS011;44109;52.398;7.024;2022-12-26T12:42:29;8.20;;;1.88;;
58302;SDS011;44109;52.398;7.024;2022-12-26T12:45:23;4.00;;;1.08;;
58302;SDS011;44109;52.398;7.024;2022-12-26T12:48:01;11.53;;;2.57;;
58302;SDS011;44109;52.398;7.024;2022-12-26T12:50:46;7.32;;;1.92;;
58302;SDS011;44109;52.398;7.024;2022-12-26T12:53:32;5.20;;;1.50;;
58302;SDS011;44109;52.398;7.024;2022-12-26T12:56:27;8.98;;;1.20;;
58302;SDS011;44109;52.398;7.024;2022-12-26T12:59:13;8.10;;;1.58;;
58302;SDS011;44109;52.398;7.024;2022-12-26T13:01:56;8.50;;;2.17;;
58302;SDS011;44109;52.398;7.024;2022-12-26T13:04:31;9.65;;;2.15;;
58302;SDS011;44109;52.398;7.024;2022-12-26T13:07:08;9.65;;;1.27;;
58302;SDS011;44109;52.398;7.024;2022-12-26T13:09:48;9.55;;;1.63;;
58302;SDS011;44109;52.398;7.024;2022-12-26T13:12:23;5.75;;;1.20;;
58302;SDS011;44109;52.398;7.024;2022-12-26T13:15:01;6.40;;;1.77;;
58302;SDS011;44109;52.398;7.024;2022-12-26T13:17:36;6.38;;;1.45;;
58302;SDS011;44109;52.398;7.024;2022-12-26T13:20:16;7.80;;;1.90;;
58302;SDS011;44109;52.398;7.024;2022-12-26T13:22:53;7.60;;;2.35;;
58302;SDS011;44109;52.398;7.024;2022-12-26T13:25:46;5.03;;;1.52;;
58302;SDS011;44109;52.398;7.024;2022-12-26T13:28:33;9.90;;;2.85;;
58302;SDS011;44109;52.398;7.024;2022-12-26T13:31:10;7.70;;;1.85;;
58302;SDS011;44109;52.398;7.024;2022-12-26T13:33:40;8.30;;;2.03;;
58302;SDS011;44109;52.398;7.024;2022-12-26T13:36:09;10.88;;;2.05;;
58302;SDS011;44109;52.398;7.024;2022-12-26T13:42:04;6.95;;;1.92;;
58302;SDS011;44109;52.398;7.024;2022-12-26T13:51:41;11.95;;;2.20;;
58302;SDS011;44109;52.398;7.024;2022-12-26T13:54:22;8.95;;;2.38;;
58302;SDS011;44109;52.398;7.024;2022-12-26T14:00:14;7.05;;;1.58;;
58302;SDS011;44109;52.398;7.024;2022-12-26T14:03:02;4.60;;;1.10;;
58302;SDS011;44109;52.398;7.024;2022-12-26T14:06:09;4.38;;;1.55;;
58302;SDS011;44109;52.398;7.024;2022-12-26T14:09:04;8.30;;;1.55;;
58302;SDS011;44109;52.398;7.024;2022-12-26T14:11:55;5.60;;;1.40;;
58302;SDS011;44109;52.398;7.024;2022-12-26T14:14:51;3.17;;;0.82;;
58302;SDS011;44109;52.398;7.024;2022-12-26T14:17:37;4.43;;;1.20;;
58302;SDS011;44109;52.398;7.024;2022-12-26T14:20:25;9.27;;;1.45;;
58302;SDS011;44109;52.398;7.024;2022-12-26T14:26:16;5.05;;;1.35;;
58302;SDS011;44109;52.398;7.024;2022-12-26T14:29:02;5.70;;;1.40;;
58302;SDS011;44109;52.398;7.024;2022-12-26T14:31:46;8.20;;;1.40;;
58302;SDS011;44109;52.398;7.024;2022-12-26T14:34:52;6.70;;;1.55;;
58302;SDS011;44109;52.398;7.024;2022-12-26T14:37:34;6.75;;;1.70;;
58302;SDS011;44109;52.398;7.024;2022-12-26T14:40:24;6.30;;;1.48;;
58302;SDS011;44109;52.398;7.024;2022-12-26T14:43:09;6.22;;;1.65;;
58302;SDS011;44109;52.398;7.024;2022-12-26T14:45:52;10.90;;;1.83;;
58302;SDS011;44109;52.398;7.024;2022-12-26T14:51:27;6.13;;;2.08;;
58302;SDS011;44109;52.398;7.024;2022-12-26T15:03:21;6.05;;;1.90;;
58302;SDS011;44109;52.398;7.024;2022-12-26T15:06:23;8.63;;;1.75;;
58302;SDS011;44109;52.398;7.024;2022-12-26T15:09:50;5.82;;;1.42;;
58302;SDS011;44109;52.398;7.024;2022-12-26T15:16:46;6.60;;;1.35;;
58302;SDS011;44109;52.398;7.024;2022-12-26T15:19:42;6.00;;;2.17;;
58302;SDS011;44109;52.398;7.024;2022-12-26T15:23:13;6.78;;;1.25;;
58302;SDS011;44109;52.398;7.024;2022-12-26T15:32:41;2.80;;;1.20;;
58302;SDS011;44109;52.398;7.024;2022-12-26T15:35:25;5.43;;;1.10;;
58302;SDS011;44109;52.398;7.024;2022-12-26T15:41:06;7.07;;;1.60;;
58302;SDS011;44109;52.398;7.024;2022-12-26T15:43:48;4.53;;;1.10;;
58302;SDS011;44109;52.398;7.024;2022-12-26T15:46:30;6.72;;;1.65;;
58302;SDS011;44109;52.398;7.024;2022-12-26T15:49:11;5.30;;;2.55;;
58302;SDS011;44109;52.398;7.024;2022-12-26T15:52:06;8.00;;;1.48;;
58302;SDS011;44109;52.398;7.024;2022-12-26T15:54:59;5.35;;;1.55;;
58302;SDS011;44109;52.398;7.024;2022-12-26T15:58:05;4.68;;;1.48;;
58302;SDS011;44109;52.398;7.024;2022-12-26T16:00:47;6.90;;;1.88;;
58302;SDS011;44109;52.398;7.024;2022-12-26T16:03:21;5.60;;;1.30;;
58302;SDS011;44109;52.398;7.024;2022-12-26T16:05:59;4.63;;;1.52;;
58302;SDS011;44109;52.398;7.024;2022-12-26T16:08:54;9.65;;;2.60;;
58302;SDS011;44109;52.398;7.024;2022-12-26T16:11:48;4.10;;;1.48;;
58302;SDS011;44109;52.398;7.024;2022-12-26T16:14:24;7.28;;;1.70;;
58302;SDS011;44109;52.398;7.024;2022-12-26T16:17:08;12.50;;;2.35;;
58302;SDS011;44109;52.398;7.024;2022-12-26T16:19:46;4.35;;;1.77;;
58302;SDS011;44109;52.398;7.024;2022-12-26T16:22:16;3.80;;;1.67;;
58302;SDS011;44109;52.398;7.024;2022-12-26T16:25:12;2.33;;;1.30;;
58302;SDS011;44109;52.398;7.024;2022-12-26T16:27:45;7.80;;;2.13;;
58302;SDS011;44109;52.398;7.024;2022-12-26T16:30:17;5.82;;;2.15;;
58302;SDS011;44109;52.398;7.024;2022-12-26T16:32:48;6.60;;;1.48;;
58302;SDS011;44109;52.398;7.024;2022-12-26T16:35:20;6.05;;;1.95;;
58302;SDS011;44109;52.398;7.024;2022-12-26T16:37:53;4.32;;;1.80;;
58302;SDS011;44109;52.398;7.024;2022-12-26T16:40:26;10.52;;;2.10;;
58302;SDS011;44109;52.398;7.024;2022-12-26T16:42:57;5.35;;;1.60;;